Accueil
METAR-TAF:

METAR-TAF

Aéroports :

Plate-forme pétrolière

P11-b, Pays-Bas

latitude: 52-21-36N, longitude: 3-20-30E, altitude: 24 m

Observation

Le bulletin a été fait il y a 35 minutes, à 05:55 UTC
Vent 8 kt de nord-ouest, variant entre ouest et nord
Température 18°C
Humidité 94%
Pression 1018 hPa
Visibilité 10 km ou plus
Quelques nuages à une hauteur de 700 ft
Nuages épars à une hauteur de 800 ft
Nuages fragmentés à une hauteur de 1000 ft

METAR: EHPG 200555Z AUTO 31008KT 260V360 9999 FEW007 SCT008 BKN010 18/17 Q1018 W///H///

Heure: 08:30 (06:30 UTC)


TAF: absent

Observations et prévisions météorologiques de plus de 4000 aéroports (messages METAR et TAF).

Les stations disponibles sont représentées par des disques jaunes et rouges sur la carte.

Passer la souris dessus pour voir le nom de la station.

Cliquer dessus pour voir les observations et prévisions météorologiques.

Pour changer de carte: cliquez sur les boutons verts avec une croix noire pour zoomer, sur le bouton vert avec un tiret pour effectuer un zoom arrière, ou sur les flèches vertes pour les cartes adjacentes.


METAR-TAF: